Time;durP1;ratioP1;P1;durP2;ratioP2;P2;SDS_P1;SDS_P2;PMS_P1;PMS_P2;Temp;Humidity;BMP_temperature;BMP_pressure;BME280_temperature;BME280_humidity;BME280_pressure;Samples;Min_cycle;Max_cycle;Signal;HPM_P1;HPM_P2
2022/05/24 00:00:58;;;;;;;;;;;512.00;2380.80;;;;;;5115871;28;19903;-78
2022/05/24 00:03:23;;;;;;;;;;;512.00;2380.80;;;;;;5115869;28;19904;-79
2022/05/24 00:05:49;;;;;;;;;;;487.10;2380.80;;;;;;5115851;28;19994;-77
2022/05/24 00:08:15;;;;;;;;;;;487.00;2380.80;;;;;;5115017;28;19960;-79
2022/05/24 00:10:41;;;;;;;;;;;487.00;2380.80;;;;;;5115237;28;19919;-79
2022/05/24 00:13:08;;;;;;;;;;;487.00;2380.80;;;;;;5116289;28;19991;-81
2022/05/24 00:15:34;;;;;;;;;;;487.00;2380.80;;;;;;5117214;28;19911;-81
2022/05/24 00:18:00;;;;;;;;;;;486.90;2380.80;;;;;;5115139;28;20273;-81
2022/05/24 00:20:28;;;;;;;;;;;486.70;2380.80;;;;;;5115209;28;19903;-80
2022/05/24 00:22:53;;;;;;;;;;;486.70;2380.80;;;;;;5115798;28;19904;-81
2022/05/24 00:25:19;;;;;;;;;;;486.70;2380.80;;;;;;5115560;28;20055;-81
2022/05/24 00:27:45;;;;;;;;;;;486.70;2380.80;;;;;;5117314;28;19958;-80
2022/05/24 00:30:11;;;;;;;;;;;486.60;2380.80;;;;;;5115173;28;19920;-81
2022/05/24 00:32:37;;;;;;;;;;;486.70;2380.80;;;;;;5114799;28;19910;-80
2022/05/24 00:35:02;;;;;;;;;;;486.70;2380.80;;;;;;5115079;28;20037;-80
2022/05/24 00:37:28;;;;;;;;;;;486.80;2380.80;;;;;;5114992;28;20352;-80
2022/05/24 00:39:54;;;;;;;;;;;486.80;2380.80;;;;;;5114611;28;19916;-82
2022/05/24 00:42:22;;;;;;;;;;;486.80;2380.80;;;;;;5115028;28;20360;-80
2022/05/24 00:44:58;;;;;;;;;;;486.80;2380.80;;;;;;5114603;28;19904;-80
2022/05/24 00:47:32;;;;;;;;;;;486.80;2380.80;;;;;;5114288;28;19907;-80
2022/05/24 00:50:00;;;;;;;;;;;486.80;2380.80;;;;;;5114671;28;19943;-80
2022/05/24 00:52:29;;;;;;;;;;;486.70;2380.80;;;;;;5114283;28;19904;-81
2022/05/24 00:54:54;;;;;;;;;;;486.50;2380.80;;;;;;5114492;28;19904;-81
2022/05/24 00:57:30;;;;;;;;;;;486.50;2380.80;;;;;;5114445;28;19910;-81
2022/05/24 01:00:01;;;;;;;;;;;486.60;2380.80;;;;;;5114651;28;20018;-80
2022/05/24 01:02:27;;;;;;;;;;;486.40;2380.80;;;;;;5114542;28;20375;-81
2022/05/24 01:04:52;;;;;;;;;;;486.40;2380.80;;;;;;5114184;28;19904;-80
2022/05/24 01:07:18;;;;;;;;;;;486.40;2380.80;;;;;;5115459;27;19990;-80
2022/05/24 01:09:47;;;;;;;;;;;486.40;2380.80;;;;;;5115054;28;19904;-81
2022/05/24 01:12:22;;;;;;;;;;;486.50;2380.80;;;;;;5114592;28;20431;-80
2022/05/24 01:14:48;;;;;;;;;;;486.40;2380.80;;;;;;5113981;28;19908;-80
2022/05/24 01:17:14;;;;;;;;;;;461.70;2380.80;;;;;;5114463;28;19903;-80
2022/05/24 01:19:45;;;;;;;;;;;461.70;2380.80;;;;;;5114421;28;19968;-80
2022/05/24 01:22:27;;;;;;;;;;;461.60;2380.80;;;;;;5118810;28;19911;-79
2022/05/24 01:25:07;;;;;;;;;;;461.60;2380.80;;;;;;5118025;28;19985;-81
2022/05/24 01:27:33;;;;;;;;;;;461.60;2380.80;;;;;;5115871;28;20279;-80
2022/05/24 01:29:59;;;;;;;;;;;486.40;2380.80;;;;;;5118029;28;19912;-81
2022/05/24 01:37:53;;;;;;;;;;;461.70;2380.80;;;;;;5115024;28;20006;-80
2022/05/24 01:40:19;;;;;;;;;;;461.70;2380.80;;;;;;5113840;28;19946;-80
2022/05/24 01:42:44;;;;;;;;;;;461.50;2380.80;;;;;;5113368;28;19953;-81
2022/05/24 01:45:18;;;;;;;;;;;461.50;2380.80;;;;;;5113785;28;19956;-81
2022/05/24 01:47:47;;;;;;;;;;;461.50;2380.80;;;;;;5113739;28;20337;-80
2022/05/24 01:50:14;;;;;;;;;;;461.70;2380.80;;;;;;5113466;28;20353;-81
2022/05/24 01:53:02;;;;;;;;;;;461.70;2380.80;;;;;;5113622;28;19950;-85
2022/05/24 01:55:32;;;;;;;;;;;486.40;2380.80;;;;;;5113510;28;19908;-81
2022/05/24 01:57:59;;;;;;;;;;;486.50;2380.80;;;;;;5113586;28;19939;-80
2022/05/24 02:00:25;;;;;;;;;;;486.50;2380.80;;;;;;5113667;28;19903;-81
2022/05/24 02:02:51;;;;;;;;;;;486.50;2380.80;;;;;;5116459;28;19971;-80
2022/05/24 02:05:33;;;;;;;;;;;486.40;2380.80;;;;;;5113925;28;20001;-80
2022/05/24 02:08:00;;;;;;;;;;;486.40;2380.80;;;;;;5113976;28;19914;-81
2022/05/24 02:10:26;;;;;;;;;;;461.70;2380.80;;;;;;5121314;28;19919;-79
2022/05/24 02:12:54;;;;;;;;;;;461.50;2380.80;;;;;;5122235;28;19904;-80
2022/05/24 02:15:24;;;;;;;;;;;461.50;2380.80;;;;;;5123942;28;19929;-80
2022/05/24 02:17:50;;;;;;;;;;;461.50;2380.80;;;;;;5121151;28;19903;-79
2022/05/24 02:20:20;;;;;;;;;;;461.70;2380.80;;;;;;5117165;28;19991;-81
2022/05/24 02:22:46;;;;;;;;;;;461.50;2380.80;;;;;;5114192;28;19903;-80
2022/05/24 02:25:20;;;;;;;;;;;461.50;2380.80;;;;;;5112951;28;19927;-80
2022/05/24 02:27:46;;;;;;;;;;;461.50;2380.80;;;;;;5113389;28;19914;-79
2022/05/24 02:30:13;;;;;;;;;;;461.50;2380.80;;;;;;5112920;28;19904;-80
2022/05/24 02:32:39;;;;;;;;;;;461.50;2380.80;;;;;;5117130;28;19907;-81
2022/05/24 02:35:05;;;;;;;;;;;461.40;2380.80;;;;;;5117152;28;19908;-80
2022/05/24 02:37:30;;;;;;;;;;;461.40;2380.80;;;;;;5117688;28;19904;-80
2022/05/24 02:42:40;;;;;;;;;;;461.40;2380.80;;;;;;5118480;28;19911;-80
2022/05/24 02:45:06;;;;;;;;;;;461.40;2380.80;;;;;;5116787;28;19903;-80
2022/05/24 02:47:31;;;;;;;;;;;461.50;2380.80;;;;;;5116951;28;19910;-80
2022/05/24 02:49:57;;;;;;;;;;;461.50;2380.80;;;;;;5117880;27;19907;-81
2022/05/24 02:52:23;;;;;;;;;;;461.50;2380.80;;;;;;5117730;28;19956;-80
2022/05/24 02:54:48;;;;;;;;;;;461.50;2380.80;;;;;;5116988;28;19956;-81
2022/05/24 02:57:14;;;;;;;;;;;461.50;2380.80;;;;;;5116820;28;19972;-79
2022/05/24 02:59:40;;;;;;;;;;;461.50;2380.80;;;;;;5116374;28;19904;-80
2022/05/24 03:02:06;;;;;;;;;;;461.40;2380.80;;;;;;5117965;28;19925;-79
2022/05/24 03:04:31;;;;;;;;;;;461.40;2380.80;;;;;;5118152;27;19949;-80
2022/05/24 03:09:41;;;;;;;;;;;461.40;2380.80;;;;;;5117984;28;19969;-79
2022/05/24 03:14:52;;;;;;;;;;;461.50;2380.80;;;;;;5117954;28;19910;-81
2022/05/24 03:17:18;;;;;;;;;;;461.50;2380.80;;;;;;5117941;28;19946;-81
2022/05/24 03:19:44;;;;;;;;;;;461.50;2380.80;;;;;;5116209;28;19927;-80
2022/05/24 03:22:10;;;;;;;;;;;461.40;2380.80;;;;;;5116358;28;19938;-79
2022/05/24 03:24:36;;;;;;;;;;;461.50;2380.80;;;;;;5116361;28;19948;-80
2022/05/24 03:27:07;;;;;;;;;;;461.50;2380.80;;;;;;5115959;28;19970;-80
2022/05/24 03:29:33;;;;;;;;;;;461.50;2380.80;;;;;;5116253;28;20454;-80
2022/05/24 03:31:58;;;;;;;;;;;461.50;2380.80;;;;;;5116112;28;20006;-81
2022/05/24 03:34:24;;;;;;;;;;;461.50;2380.80;;;;;;5115810;28;19910;-81
2022/05/24 03:36:49;;;;;;;;;;;461.40;2380.80;;;;;;5115991;28;20006;-81
2022/05/24 03:39:15;;;;;;;;;;;461.40;2380.80;;;;;;5117237;28;19923;-81
2022/05/24 03:41:43;;;;;;;;;;;461.50;2380.80;;;;;;5115159;28;19904;-81
2022/05/24 03:44:09;;;;;;;;;;;461.50;2380.80;;;;;;5115011;28;19998;-80
2022/05/24 03:46:35;;;;;;;;;;;460.90;2380.80;;;;;;5115762;28;20312;-80
2022/05/24 03:49:01;;;;;;;;;;;461.30;2380.80;;;;;;5115586;28;19903;-80
2022/05/24 03:51:26;;;;;;;;;;;461.30;2380.80;;;;;;5115937;28;19911;-80
2022/05/24 03:53:52;;;;;;;;;;;461.30;2380.80;;;;;;5117005;28;19903;-81
2022/05/24 03:56:18;;;;;;;;;;;461.30;2380.80;;;;;;5115106;28;19910;-81
2022/05/24 03:58:43;;;;;;;;;;;461.40;2380.80;;;;;;5115633;28;20407;-81
2022/05/24 04:01:10;;;;;;;;;;;461.40;2380.80;;;;;;5115373;28;19955;-80
2022/05/24 04:03:36;;;;;;;;;;;461.50;2380.80;;;;;;5116500;28;19910;-80
2022/05/24 04:06:02;;;;;;;;;;;461.40;2380.80;;;;;;5115560;28;19903;-81
2022/05/24 04:08:29;;;;;;;;;;;461.30;2380.80;;;;;;5115119;28;19960;-81
2022/05/24 04:11:02;;;;;;;;;;;461.30;2380.80;;;;;;5115454;28;19912;-80
2022/05/24 04:13:28;;;;;;;;;;;461.20;2380.80;;;;;;5115446;28;20268;-82
2022/05/24 04:15:53;;;;;;;;;;;461.30;2380.80;;;;;;5114957;28;19903;-80
2022/05/24 04:18:19;;;;;;;;;;;461.30;2380.80;;;;;;5115066;28;19907;-81
2022/05/24 04:20:44;;;;;;;;;;;461.40;2380.80;;;;;;5116801;28;20356;-81
2022/05/24 04:23:11;;;;;;;;;;;461.40;2380.80;;;;;;5116009;28;19903;-80
2022/05/24 04:25:37;;;;;;;;;;;461.40;2380.80;;;;;;5115130;28;20264;-81
2022/05/24 04:28:03;;;;;;;;;;;461.40;2380.80;;;;;;5115118;28;19998;-80
2022/05/24 04:30:28;;;;;;;;;;;486.90;2380.80;;;;;;5116858;28;19912;-79
2022/05/24 04:32:54;;;;;;;;;;;461.30;2380.80;;;;;;5124794;28;19910;-80
2022/05/24 04:35:20;;;;;;;;;;;461.30;2380.80;;;;;;5120098;28;19910;-80
2022/05/24 04:37:45;;;;;;;;;;;461.50;2380.80;;;;;;5115392;28;19904;-81
2022/05/24 04:40:11;;;;;;;;;;;461.50;2380.80;;;;;;5114928;28;19904;-80
2022/05/24 04:42:38;;;;;;;;;;;486.60;2380.80;;;;;;5114776;28;19968;-80
2022/05/24 04:45:06;;;;;;;;;;;486.50;2380.80;;;;;;5114367;28;19910;-80
2022/05/24 04:47:32;;;;;;;;;;;461.50;2380.80;;;;;;5114752;28;19911;-81
2022/05/24 04:49:59;;;;;;;;;;;461.50;2380.80;;;;;;5114526;28;19904;-80
2022/05/24 04:52:26;;;;;;;;;;;461.50;2380.80;;;;;;5114047;28;20010;-81
2022/05/24 04:54:52;;;;;;;;;;;461.50;2380.80;;;;;;5114179;28;19903;-79
2022/05/24 04:57:18;;;;;;;;;;;461.50;2380.80;;;;;;5114064;28;19903;-81
2022/05/24 04:59:44;;;;;;;;;;;461.70;2380.80;;;;;;5116068;28;19964;-81
2022/05/24 05:02:10;;;;;;;;;;;461.70;2380.80;;;;;;5114902;28;19904;-80
2022/05/24 05:04:36;;;;;;;;;;;461.50;2380.80;;;;;;5114072;28;19986;-80
2022/05/24 05:07:01;;;;;;;;;;;461.50;2380.80;;;;;;5114169;28;19910;-81
2022/05/24 05:09:34;;;;;;;;;;;461.70;2380.80;;;;;;5115455;28;19904;-80
2022/05/24 05:12:03;;;;;;;;;;;461.70;2380.80;;;;;;5115077;28;19916;-80
2022/05/24 05:14:29;;;;;;;;;;;486.40;2380.80;;;;;;5114084;28;20348;-80
2022/05/24 05:16:55;;;;;;;;;;;486.40;2380.80;;;;;;5114017;28;19911;-80
2022/05/24 05:19:20;;;;;;;;;;;486.50;2380.80;;;;;;5113784;28;20371;-81
2022/05/24 05:21:46;;;;;;;;;;;486.50;2380.80;;;;;;5115057;28;19955;-81
2022/05/24 05:24:11;;;;;;;;;;;486.60;2380.80;;;;;;5114094;28;19911;-81
2022/05/24 05:26:37;;;;;;;;;;;486.70;2380.80;;;;;;5113720;28;19994;-81
2022/05/24 05:29:03;;;;;;;;;;;486.80;2380.80;;;;;;5115026;28;19985;-81
2022/05/24 05:31:29;;;;;;;;;;;486.80;2380.80;;;;;;5113717;28;19923;-81
2022/05/24 05:33:58;;;;;;;;;;;487.00;2380.80;;;;;;5113715;28;19904;-81
2022/05/24 05:36:25;;;;;;;;;;;487.10;2380.80;;;;;;5113546;28;19910;-82
2022/05/24 05:38:51;;;;;;;;;;;487.30;2380.80;;;;;;5113247;28;19965;-81
2022/05/24 05:41:21;;;;;;;;;;;487.30;2380.80;;;;;;5113531;28;19908;-82
2022/05/24 05:43:48;;;;;;;;;;;512.10;2380.80;;;;;;5114616;28;20010;-82
2022/05/24 05:46:14;;;;;;;;;;;512.30;2380.80;;;;;;5113343;28;19934;-80
2022/05/24 05:48:40;;;;;;;;;;;512.40;2380.80;;;;;;5113259;28;19907;-82
2022/05/24 05:51:06;;;;;;;;;;;512.50;2380.80;;;;;;5113277;28;20337;-81
2022/05/24 05:53:32;;;;;;;;;;;512.50;2380.80;;;;;;5114255;28;19955;-82
2022/05/24 05:55:58;;;;;;;;;;;512.40;2380.80;;;;;;5113442;28;19982;-81
2022/05/24 05:58:24;;;;;;;;;;;512.40;2380.80;;;;;;5113438;28;20011;-81
2022/05/24 06:00:49;;;;;;;;;;;512.40;2380.80;;;;;;5114323;28;20343;-82
2022/05/24 06:03:15;;;;;;;;;;;512.60;2380.80;;;;;;5113575;28;19904;-82
2022/05/24 06:05:42;;;;;;;;;;;512.80;2380.80;;;;;;5112360;28;19903;-82
2022/05/24 06:08:11;;;;;;;;;;;512.90;2380.80;;;;;;5113166;28;19990;-82
2022/05/24 06:10:37;;;;;;;;;;;537.60;2406.40;;;;;;5113347;28;19915;-82
2022/05/24 06:13:03;;;;;;;;;;;537.70;2406.40;;;;;;5113558;28;20265;-82
2022/05/24 06:15:30;;;;;;;;;;;537.80;2406.40;;;;;;5112690;28;19919;-82
2022/05/24 06:17:56;;;;;;;;;;;537.80;2406.40;;;;;;5113182;28;19903;-82
2022/05/24 06:20:23;;;;;;;;;;;537.70;2406.40;;;;;;5113352;28;19933;-81
2022/05/24 06:22:49;;;;;;;;;;;537.90;2406.40;;;;;;5113217;28;19925;-82
2022/05/24 06:25:19;;;;;;;;;;;538.10;2406.40;;;;;;5113090;28;19904;-81
2022/05/24 06:27:44;;;;;;;;;;;538.20;2406.40;;;;;;5114951;28;19950;-80
2022/05/24 06:30:10;;;;;;;;;;;538.30;2406.40;;;;;;5112677;28;19935;-81
2022/05/24 06:32:36;;;;;;;;;;;538.50;2406.40;;;;;;5113126;28;19908;-81
2022/05/24 06:35:02;;;;;;;;;;;538.50;2406.40;;;;;;5113292;28;19904;-80
2022/05/24 06:37:27;;;;;;;;;;;538.50;2406.40;;;;;;5112927;28;20348;-81
2022/05/24 06:39:53;;;;;;;;;;;563.50;2432.00;;;;;;5113059;28;19915;-81
2022/05/24 06:42:18;;;;;;;;;;;563.50;2432.00;;;;;;5113226;28;19911;-81
2022/05/24 06:44:44;;;;;;;;;;;563.60;2432.00;;;;;;5113116;28;19903;-80
2022/05/24 06:47:10;;;;;;;;;;;563.70;2432.00;;;;;;5114459;28;19948;-81
2022/05/24 06:49:36;;;;;;;;;;;564.00;2432.00;;;;;;5112839;28;19949;-81
2022/05/24 06:52:03;;;;;;;;;;;588.80;2432.00;;;;;;5113102;28;19990;-80
2022/05/24 06:54:29;;;;;;;;;;;588.90;2432.00;;;;;;5112996;28;20245;-80
2022/05/24 06:56:55;;;;;;;;;;;588.80;2432.00;;;;;;5112648;28;19965;-81
2022/05/24 07:04:50;;;;;;;;;;;564.00;2432.00;;;;;;5114054;28;19983;-81
2022/05/24 07:07:16;;;;;;;;;;;589.30;2432.00;;;;;;5112829;28;19903;-81
2022/05/24 07:09:41;;;;;;;;;;;589.50;2432.00;;;;;;5112918;28;20352;-81
2022/05/24 07:12:07;;;;;;;;;;;589.70;2432.00;;;;;;5112363;28;19958;-81
2022/05/24 07:14:33;;;;;;;;;;;589.50;2432.00;;;;;;5112686;28;20009;-80
2022/05/24 07:16:59;;;;;;;;;;;589.50;2432.00;;;;;;5113720;28;19908;-80
2022/05/24 07:19:25;;;;;;;;;;;589.50;2432.00;;;;;;5116216;28;19911;-81
2022/05/24 07:21:51;;;;;;;;;;;589.60;2432.00;;;;;;5116336;28;20010;-81
2022/05/24 07:24:17;;;;;;;;;;;589.60;2432.00;;;;;;5116096;28;19943;-79
2022/05/24 07:26:43;;;;;;;;;;;614.50;2432.00;;;;;;5116396;28;19951;-81
2022/05/24 07:29:09;;;;;;;;;;;614.40;2432.00;;;;;;5117619;28;19907;-81
2022/05/24 07:31:34;;;;;;;;;;;614.50;2432.00;;;;;;5115997;28;19908;-80
2022/05/24 07:34:01;;;;;;;;;;;589.70;2432.00;;;;;;5116324;28;20349;-80
2022/05/24 07:36:27;;;;;;;;;;;614.40;2432.00;;;;;;5116273;28;19904;-80
2022/05/24 07:38:53;;;;;;;;;;;614.60;2432.00;;;;;;5115739;28;19922;-80
2022/05/24 07:46:46;;;;;;;;;;;615.20;2432.00;;;;;;5116755;28;19911;-80
2022/05/24 07:49:12;;;;;;;;;;;640.00;2432.00;;;;;;5115900;28;20272;-81
2022/05/24 07:51:38;;;;;;;;;;;640.20;2432.00;;;;;;5115974;28;19958;-80
2022/05/24 07:54:03;;;;;;;;;;;640.40;2432.00;;;;;;5115385;28;19908;-80
2022/05/24 07:56:29;;;;;;;;;;;640.40;2432.00;;;;;;5115901;28;19914;-81
2022/05/24 07:58:55;;;;;;;;;;;640.60;2432.00;;;;;;5115860;28;20348;-80
2022/05/24 08:01:23;;;;;;;;;;;640.70;2432.00;;;;;;5116691;28;19904;-81
2022/05/24 08:03:49;;;;;;;;;;;640.70;2432.00;;;;;;5117307;28;19911;-82
2022/05/24 08:06:15;;;;;;;;;;;665.90;2432.00;;;;;;5115178;28;19910;-81
2022/05/24 08:08:41;;;;;;;;;;;640.90;2432.00;;;;;;5115544;28;19904;-78
2022/05/24 08:11:07;;;;;;;;;;;665.70;2432.00;;;;;;5115439;28;19908;-80
2022/05/24 08:13:32;;;;;;;;;;;665.70;2432.00;;;;;;5115299;28;19907;-80
2022/05/24 08:15:58;;;;;;;;;;;665.70;2432.00;;;;;;5115676;28;20306;-80
2022/05/24 08:18:24;;;;;;;;;;;666.20;2432.00;;;;;;5115431;28;19911;-81
2022/05/24 08:20:50;;;;;;;;;;;666.20;2432.00;;;;;;5115676;28;20340;-82
2022/05/24 08:23:19;;;;;;;;;;;666.20;2432.00;;;;;;5115824;28;19904;-82
2022/05/24 08:25:45;;;;;;;;;;;666.40;2432.00;;;;;;5115268;28;20001;-82
2022/05/24 08:28:11;;;;;;;;;;;691.20;2432.00;;;;;;5116715;28;19960;-81
2022/05/24 08:30:38;;;;;;;;;;;691.40;2432.00;;;;;;5115160;28;19907;-82
2022/05/24 08:33:06;;;;;;;;;;;691.70;2355.20;;;;;;5115848;28;20002;-81
2022/05/24 08:35:33;;;;;;;;;;;691.30;2355.20;;;;;;5117256;28;19911;-82
2022/05/24 08:38:00;;;;;;;;;;;691.20;2380.80;;;;;;5119769;28;19915;-81
2022/05/24 08:40:26;;;;;;;;;;;691.30;2406.40;;;;;;5115290;28;19903;-78
2022/05/24 08:42:54;;;;;;;;;;;691.50;2406.40;;;;;;5114951;28;19911;-79
2022/05/24 08:48:25;;;;;;;;;;;691.20;2380.80;;;;;;5116198;28;19969;-78
2022/05/24 08:50:59;;;;;;;;;;;691.50;2406.40;;;;;;5114609;28;19965;-80
2022/05/24 08:53:30;;;;;;;;;;;691.90;2329.60;;;;;;5114310;28;19915;-78
2022/05/24 08:55:57;;;;;;;;;;;716.80;2304.00;;;;;;5115765;28;19904;-79
2022/05/24 08:58:32;;;;;;;;;;;692.10;2278.40;;;;;;5114590;28;19910;-78
2022/05/24 09:00:58;;;;;;;;;;;717.10;2304.00;;;;;;5115264;28;19992;-79
2022/05/24 09:03:25;;;;;;;;;;;717.30;2278.40;;;;;;5114480;28;20332;-79
2022/05/24 09:06:09;;;;;;;;;;;717.70;2252.80;;;;;;5114243;28;19904;-78
2022/05/24 09:08:41;;;;;;;;;;;717.40;2201.60;;;;;;5114536;28;19903;-78
2022/05/24 09:11:16;;;;;;;;;;;717.50;2201.60;;;;;;5115399;28;19959;-78
2022/05/24 09:13:54;;;;;;;;;;;717.50;2227.20;;;;;;5115060;28;20374;-79
2022/05/24 09:16:19;;;;;;;;;;;742.40;2252.80;;;;;;5114229;28;19955;-80
2022/05/24 09:18:45;;;;;;;;;;;742.50;2201.60;;;;;;5114135;28;20012;-80
2022/05/24 09:21:18;;;;;;;;;;;742.40;2176.00;;;;;;5113652;28;19903;-78
2022/05/24 09:23:46;;;;;;;;;;;742.50;2176.00;;;;;;5114952;28;19911;-79
2022/05/24 09:26:13;;;;;;;;;;;742.60;2176.00;;;;;;5113533;28;19990;-79
2022/05/24 09:28:51;;;;;;;;;;;742.60;2150.40;;;;;;5114838;28;19960;-78
2022/05/24 09:31:23;;;;;;;;;;;742.50;2176.00;;;;;;5113873;28;19908;-78
2022/05/24 09:33:53;;;;;;;;;;;742.70;2176.00;;;;;;5114097;28;19951;-78
2022/05/24 09:36:51;;;;;;;;;;;742.60;2124.80;;;;;;5114095;28;19956;-78
2022/05/24 09:39:23;;;;;;;;;;;742.40;2150.40;;;;;;5091454;28;19916;-78
2022/05/24 09:41:59;;;;;;;;;;;742.50;2150.40;;;;;;5115088;28;19973;-79
2022/05/24 09:44:25;;;;;;;;;;;742.50;2150.40;;;;;;5115645;28;19903;-80
2022/05/24 09:46:51;;;;;;;;;;;717.70;2150.40;;;;;;5114110;28;19904;-80
2022/05/24 09:49:25;;;;;;;;;;;742.80;2150.40;;;;;;5115021;28;19910;-78
2022/05/24 09:51:54;;;;;;;;;;;742.80;2073.60;;;;;;5115186;28;19907;-79
2022/05/24 09:54:22;;;;;;;;;;;743.20;2073.60;;;;;;5113998;28;20368;-79
2022/05/24 09:57:03;;;;;;;;;;;743.30;2048.00;;;;;;5113656;28;19991;-78
2022/05/24 09:59:29;;;;;;;;;;;743.00;2073.60;;;;;;5104752;28;19965;-78
2022/05/24 10:01:55;;;;;;;;;;;768.00;2073.60;;;;;;5093491;28;19904;-78
2022/05/24 10:04:29;;;;;;;;;;;743.20;2073.60;;;;;;5093981;28;19904;-79
2022/05/24 10:06:59;;;;;;;;;;;743.00;2099.20;;;;;;5095769;28;19911;-78
2022/05/24 10:09:28;;;;;;;;;;;743.00;2073.60;;;;;;5093274;28;20238;-78
2022/05/24 10:11:59;;;;;;;;;;;768.00;2048.00;;;;;;5094203;28;19955;-79
2022/05/24 10:14:29;;;;;;;;;;;768.80;2022.40;;;;;;5093765;28;19942;-77
2022/05/24 10:17:13;;;;;;;;;;;793.70;2022.40;;;;;;5092643;28;19955;-77
2022/05/24 10:19:45;;;;;;;;;;;793.80;2022.40;;;;;;5092852;28;20323;-76
2022/05/24 10:22:20;;;;;;;;;;;794.10;1996.80;;;;;;5092801;28;19908;-77
2022/05/24 10:24:55;;;;;;;;;;;794.20;1971.20;;;;;;5093878;28;19994;-77
2022/05/24 10:27:42;;;;;;;;;;;794.20;1971.20;;;;;;5092730;28;19904;-76
2022/05/24 10:30:13;;;;;;;;;;;819.30;1971.20;;;;;;5092413;28;19904;-76
2022/05/24 10:38:37;;;;;;;;;;;819.70;1920.00;;;;;;5093592;28;19966;-75
2022/05/24 10:41:14;;;;;;;;;;;819.90;1817.60;;;;;;5084938;28;20432;-77
2022/05/24 10:43:58;;;;;;;;;;;820.00;1792.00;;;;;;5092659;28;19995;-78
2022/05/24 10:46:36;;;;;;;;;;;820.00;1766.40;;;;;;5094064;28;19911;-78
2022/05/24 10:49:08;;;;;;;;;;;819.50;1792.00;;;;;;5092701;28;19912;-76
2022/05/24 10:51:48;;;;;;;;;;;819.80;1740.80;;;;;;5092775;28;19908;-78
2022/05/24 10:54:28;;;;;;;;;;;819.40;1715.20;;;;;;5096613;28;20287;-79
2022/05/24 10:56:57;;;;;;;;;;;819.70;1715.20;;;;;;5097621;28;19972;-78
2022/05/24 10:59:23;;;;;;;;;;;819.30;1740.80;;;;;;5104053;28;19904;-79
2022/05/24 11:01:55;;;;;;;;;;;819.80;1715.20;;;;;;5117446;28;19911;-76
2022/05/24 11:04:23;;;;;;;;;;;820.10;1715.20;;;;;;5118269;28;19988;-79
2022/05/24 11:06:54;;;;;;;;;;;820.00;1715.20;;;;;;5116240;28;19954;-77
2022/05/24 11:09:22;;;;;;;;;;;819.90;1715.20;;;;;;5116616;28;19951;-78
2022/05/24 11:11:57;;;;;;;;;;;820.10;1715.20;;;;;;5116229;28;19908;-77
2022/05/24 11:14:30;;;;;;;;;;;819.90;1740.80;;;;;;5116453;28;20356;-78
2022/05/24 11:16:56;;;;;;;;;;;844.90;1766.40;;;;;;5116604;28;19911;-79
2022/05/24 11:19:25;;;;;;;;;;;845.20;1740.80;;;;;;5117531;28;19903;-79
2022/05/24 11:21:51;;;;;;;;;;;845.40;1689.60;;;;;;5116429;28;20011;-78
2022/05/24 11:24:35;;;;;;;;;;;845.10;1715.20;;;;;;5116666;28;19943;-80
2022/05/24 11:27:01;;;;;;;;;;;820.10;1715.20;;;;;;5116210;28;19998;-79
2022/05/24 11:29:30;;;;;;;;;;;844.90;1740.80;;;;;;5116382;28;20391;-79
2022/05/24 11:32:02;;;;;;;;;;;845.10;1715.20;;;;;;5117390;28;19908;-80
2022/05/24 11:34:30;;;;;;;;;;;845.20;1715.20;;;;;;5116223;28;19965;-80
2022/05/24 11:37:04;;;;;;;;;;;845.10;1715.20;;;;;;5116372;28;20288;-80
2022/05/24 11:39:35;;;;;;;;;;;845.60;1715.20;;;;;;5116229;28;20010;-78
2022/05/24 11:42:23;;;;;;;;;;;870.50;1715.20;;;;;;5115787;28;20009;-80
2022/05/24 11:44:49;;;;;;;;;;;870.90;1740.80;;;;;;5116158;28;19903;-79
2022/05/24 11:47:34;;;;;;;;;;;871.00;1689.60;;;;;;5115730;28;20292;-80
2022/05/24 11:50:00;;;;;;;;;;;845.40;1689.60;;;;;;5115905;28;19954;-79
2022/05/24 11:52:41;;;;;;;;;;;870.60;1689.60;;;;;;5117346;28;20025;-78
2022/05/24 11:55:08;;;;;;;;;;;845.60;1689.60;;;;;;5115645;28;19907;-80
2022/05/24 11:57:39;;;;;;;;;;;870.70;1664.00;;;;;;5115843;28;19903;-78
2022/05/24 12:00:05;;;;;;;;;;;845.40;1689.60;;;;;;5115790;28;19904;-78
2022/05/24 12:07:54;;;;;;;;;;;845.20;1689.60;;;;;;5115208;28;19903;-78
2022/05/24 12:08:26;;;;;;;;;;;845.70;1689.60;;;;;;5116702;28;19952;-79
2022/05/24 12:11:04;;;;;;;;;;;870.80;1689.60;;;;;;5126396;28;19907;-77
2022/05/24 12:13:33;;;;;;;;;;;870.50;1664.00;;;;;;5137599;28;20396;-78
2022/05/24 12:16:00;;;;;;;;;;;845.70;1689.60;;;;;;5130364;28;19939;-77
2022/05/24 12:18:55;;;;;;;;;;;870.40;1689.60;;;;;;5133090;28;19904;-77
2022/05/24 12:21:39;;;;;;;;;;;870.50;1689.60;;;;;;5109977;28;19939;-79
2022/05/24 12:24:24;;;;;;;;;;;870.70;1689.60;;;;;;5114994;28;20354;-79
2022/05/24 12:27:08;;;;;;;;;;;870.70;1664.00;;;;;;5115166;28;19908;-80
2022/05/24 12:29:34;;;;;;;;;;;870.60;1664.00;;;;;;5115076;28;19961;-79
2022/05/24 12:32:04;;;;;;;;;;;845.30;1689.60;;;;;;5114740;28;19943;-80
2022/05/24 12:34:31;;;;;;;;;;;845.30;1689.60;;;;;;5114840;28;19919;-79
2022/05/24 12:36:58;;;;;;;;;;;845.50;1715.20;;;;;;5115017;28;19904;-80
2022/05/24 12:39:25;;;;;;;;;;;870.60;1689.60;;;;;;5116622;28;19915;-79
2022/05/24 12:41:54;;;;;;;;;;;845.70;1689.60;;;;;;5115835;28;20383;-81
2022/05/24 12:44:21;;;;;;;;;;;870.70;1664.00;;;;;;5115755;28;19908;-79
2022/05/24 12:47:07;;;;;;;;;;;870.90;1638.40;;;;;;5116301;28;19911;-78
2022/05/24 12:49:34;;;;;;;;;;;845.70;1664.00;;;;;;5103768;28;19995;-78
2022/05/24 12:52:03;;;;;;;;;;;870.40;1638.40;;;;;;5114191;28;19911;-79
2022/05/24 12:54:28;;;;;;;;;;;845.60;1664.00;;;;;;5114757;28;19908;-80
2022/05/24 12:56:59;;;;;;;;;;;845.70;1664.00;;;;;;5114391;28;19904;-80
2022/05/24 12:59:30;;;;;;;;;;;845.70;1664.00;;;;;;5114679;28;19946;-81
2022/05/24 13:01:56;;;;;;;;;;;870.70;1689.60;;;;;;5114154;28;19904;-78
2022/05/24 13:04:27;;;;;;;;;;;870.90;1638.40;;;;;;5114040;28;19962;-77
2022/05/24 13:06:53;;;;;;;;;;;870.90;1638.40;;;;;;5114236;28;19903;-79
2022/05/24 13:09:26;;;;;;;;;;;871.20;1612.80;;;;;;5115625;28;19957;-78
2022/05/24 13:12:02;;;;;;;;;;;896.30;1612.80;;;;;;5113832;28;19908;-79
2022/05/24 13:14:46;;;;;;;;;;;871.00;1612.80;;;;;;5115113;28;20010;-77
2022/05/24 13:17:14;;;;;;;;;;;871.30;1612.80;;;;;;5113927;28;19910;-77
2022/05/24 13:19:59;;;;;;;;;;;896.40;1587.20;;;;;;5113669;28;19957;-79
2022/05/24 13:22:45;;;;;;;;;;;896.90;1561.60;;;;;;5113987;28;19907;-80
2022/05/24 13:25:14;;;;;;;;;;;896.30;1561.60;;;;;;5113592;28;20337;-80
2022/05/24 13:27:51;;;;;;;;;;;896.00;1587.20;;;;;;5113988;28;19914;-80
2022/05/24 13:35:50;;;;;;;;;;;896.50;1587.20;;;;;;5115120;28;19914;-81
2022/05/24 13:38:21;;;;;;;;;;;896.70;1561.60;;;;;;5113448;28;20016;-81
2022/05/24 13:40:55;;;;;;;;;;;896.90;1561.60;;;;;;5114822;28;20094;-80
2022/05/24 13:43:35;;;;;;;;;;;896.90;1561.60;;;;;;5115352;28;19994;-81
2022/05/24 13:46:12;;;;;;;;;;;896.50;1561.60;;;;;;5113432;28;20068;-81
2022/05/24 13:48:42;;;;;;;;;;;896.30;1587.20;;;;;;5113041;28;19908;-80
2022/05/24 13:51:14;;;;;;;;;;;896.00;1587.20;;;;;;5112202;28;19908;-80
2022/05/24 13:53:40;;;;;;;;;;;896.50;1561.60;;;;;;5113376;28;19911;-80
2022/05/24 13:56:07;;;;;;;;;;;896.90;1587.20;;;;;;5114788;28;19904;-81
2022/05/24 13:58:38;;;;;;;;;;;896.60;1561.60;;;;;;5115283;28;20032;-80
2022/05/24 14:01:29;;;;;;;;;;;896.60;1587.20;;;;;;5114597;28;19936;-80
2022/05/24 14:04:00;;;;;;;;;;;896.90;1561.60;;;;;;5109981;28;19908;-80
2022/05/24 14:06:27;;;;;;;;;;;896.90;1536.00;;;;;;5113481;28;20002;-81
2022/05/24 14:08:54;;;;;;;;;;;896.50;1561.60;;;;;;5113030;28;19957;-80
2022/05/24 14:11:22;;;;;;;;;;;896.80;1536.00;;;;;;5113451;28;19994;-81
2022/05/24 14:13:49;;;;;;;;;;;896.90;1561.60;;;;;;5112990;28;19987;-81
2022/05/24 14:16:16;;;;;;;;;;;921.90;1587.20;;;;;;5114369;28;19935;-80
2022/05/24 14:18:42;;;;;;;;;;;922.00;1561.60;;;;;;5113178;28;19911;-80
2022/05/24 14:21:08;;;;;;;;;;;921.90;1536.00;;;;;;5114558;28;19904;-81
2022/05/24 14:23:34;;;;;;;;;;;921.70;1561.60;;;;;;5113864;28;20352;-80
2022/05/24 14:25:59;;;;;;;;;;;896.50;1561.60;;;;;;5118415;28;19904;-82
2022/05/24 14:28:25;;;;;;;;;;;896.10;1587.20;;;;;;5119314;28;20021;-81
2022/05/24 14:30:51;;;;;;;;;;;871.30;1587.20;;;;;;5116998;28;19956;-81
2022/05/24 14:33:18;;;;;;;;;;;871.30;1587.20;;;;;;5117221;28;20013;-80